Time;durP1;ratioP1;P1;durP2;ratioP2;P2;SDS_P1;SDS_P2;PMS_P1;PMS_P2;Temp;Humidity;BMP_temperature;BMP_pressure;BME280_temperature;BME280_humidity;BME280_pressure;Samples;Min_cycle;Max_cycle;Signal;HPM_P1;HPM_P2
2022/11/26 00:02:17;;;;;;;1.17;0.97;;;;;;;6.30;64.40;95756.94;5112694;28;20824;-54
2022/11/26 00:04:47;;;;;;;0.50;0.37;;;;;;;6.44;65.45;95765.41;5113001;28;20435;-54
2022/11/26 00:07:20;;;;;;;0.40;0.40;;;;;;;5.81;65.28;95775.03;5112656;28;20462;-54
2022/11/26 00:09:49;;;;;;;0.63;0.60;;;;;;;5.38;66.16;95789.25;5112168;28;20432;-54
2022/11/26 00:12:22;;;;;;;0.70;0.70;;;;;;;5.28;67.33;95788.19;5113135;28;20514;-54
2022/11/26 00:14:51;;;;;;;0.40;0.40;;;;;;;5.94;66.57;95790.63;5112758;28;20495;-54
2022/11/26 00:17:20;;;;;;;0.40;0.30;;;;;;;6.05;64.73;95795.06;5112670;28;20424;-54
2022/11/26 00:19:50;;;;;;;0.40;0.40;;;;;;;5.85;65.42;95790.16;5112815;28;20444;-54
2022/11/26 00:22:24;;;;;;;0.47;0.47;;;;;;;5.90;67.01;95781.56;5112164;28;20431;-54
2022/11/26 00:24:53;;;;;;;0.60;0.40;;;;;;;6.27;67.59;95804.00;5111762;28;20467;-54
2022/11/26 00:27:24;;;;;;;0.37;0.30;;;;;;;5.86;65.99;95797.03;5112209;28;20468;-54
2022/11/26 00:29:52;;;;;;;0.40;0.30;;;;;;;5.95;65.86;95790.38;5112366;28;20990;-54
2022/11/26 00:32:22;;;;;;;0.30;0.20;;;;;;;6.05;67.08;95787.19;5112183;28;20518;-54
2022/11/26 00:34:53;;;;;;;0.50;0.50;;;;;;;6.01;67.78;95800.00;5112171;28;20547;-54
2022/11/26 00:37:23;;;;;;;1.90;1.07;;;;;;;5.69;66.38;95791.59;5112516;28;20813;-54
2022/11/26 00:39:52;;;;;;;0.40;0.40;;;;;;;5.80;67.21;95795.25;5112417;28;20436;-54
2022/11/26 00:42:20;;;;;;;0.40;0.30;;;;;;;5.83;70.18;95779.03;5112483;28;20434;-54
2022/11/26 00:44:48;;;;;;;0.80;0.80;;;;;;;5.70;67.50;95779.25;5112348;28;20884;-54
2022/11/26 00:47:17;;;;;;;1.03;0.87;;;;;;;5.72;66.99;95777.19;5112132;28;20508;-54
2022/11/26 00:49:45;;;;;;;1.80;0.93;;;;;;;5.91;66.52;95786.63;5112078;28;20471;-54
2022/11/26 00:52:26;;;;;;;4.57;0.50;;;;;;;5.98;66.11;95789.94;5112059;28;20428;-54
2022/11/26 00:54:55;;;;;;;0.50;0.40;;;;;;;5.70;66.16;95790.56;5111931;28;20473;-55
2022/11/26 00:57:23;;;;;;;1.63;1.07;;;;;;;4.76;68.42;95806.25;5112436;28;20423;-55
2022/11/26 00:59:51;;;;;;;1.70;1.57;;;;;;;3.96;71.09;95812.59;5112023;28;20494;-55
2022/11/26 01:02:20;;;;;;;1.70;1.60;;;;;;;3.71;72.66;95817.84;5112376;28;20424;-55
2022/11/26 01:04:48;;;;;;;0.47;0.47;;;;;;;3.74;73.50;95822.63;5111890;28;20424;-53
2022/11/26 01:07:17;;;;;;;8.53;1.97;;;;;;;4.05;72.53;95815.75;5112239;28;20427;-53
2022/11/26 01:09:47;;;;;;;1.33;1.23;;;;;;;4.32;71.74;95823.13;5111675;28;20520;-53
2022/11/26 01:12:15;;;;;;;0.50;0.50;;;;;;;3.81;71.59;95750.00;5112175;28;20420;-53
2022/11/26 01:14:44;;;;;;;1.47;1.37;;;;;;;4.23;71.50;95823.59;5112063;28;20487;-53
2022/11/26 01:17:12;;;;;;;1.93;1.83;;;;;;;5.10;70.06;95824.03;5112183;28;20439;-53
2022/11/26 01:19:40;;;;;;;0.93;0.93;;;;;;;5.15;68.01;95831.22;5111917;28;20443;-53
2022/11/26 01:22:19;;;;;;;0.43;0.43;;;;;;;4.95;67.85;95830.69;5110884;28;20427;-53
2022/11/26 01:24:48;;;;;;;0.40;0.30;;;;;;;4.73;68.90;95832.94;5111831;28;20523;-53
2022/11/26 01:27:19;;;;;;;1.30;1.00;;;;;;;4.73;70.45;95832.94;5111423;28;20424;-54
2022/11/26 01:29:47;;;;;;;0.37;0.30;;;;;;;4.68;71.02;95829.41;5112022;28;20428;-54
2022/11/26 01:32:16;;;;;;;0.67;0.67;;;;;;;4.77;71.16;95836.75;5111711;28;20505;-54
2022/11/26 01:34:44;;;;;;;4.10;1.37;;;;;;;4.11;71.03;95827.97;5111578;28;21005;-54
2022/11/26 01:37:13;;;;;;;0.60;0.50;;;;;;;4.50;72.25;95840.72;5114805;28;20955;-54
2022/11/26 01:39:43;;;;;;;0.90;0.30;;;;;;;4.77;74.20;95843.81;5115361;28;20442;-54
2022/11/26 01:42:25;;;;;;;1.60;1.50;;;;;;;5.10;73.98;95847.66;5115282;28;20424;-54
2022/11/26 01:44:53;;;;;;;0.40;0.30;;;;;;;5.00;73.71;95842.13;5115516;28;20436;-54
2022/11/26 01:47:24;;;;;;;0.40;0.30;;;;;;;5.02;72.91;95845.34;5115217;28;20424;-53
2022/11/26 01:50:29;;;;;;;0.30;0.30;;;;;;;5.41;80.91;95846.66;5115500;28;20427;-54
2022/11/26 01:53:01;;;;;;;0.80;0.70;;;;;;;5.55;75.52;95841.97;5115118;28;20428;-54
2022/11/26 01:55:36;;;;;;;1.20;0.80;;;;;;;5.73;75.59;95834.03;5114748;28;20509;-54
2022/11/26 01:58:08;;;;;;;2.60;1.33;;;;;;;4.54;72.99;95839.25;5114516;28;20458;-54
2022/11/26 02:00:37;;;;;;;5.93;0.57;;;;;;;4.52;80.69;95862.28;5115014;28;20416;-54
2022/11/26 02:03:05;;;;;;;0.50;0.50;;;;;;;4.02;78.72;95868.63;5115144;27;20474;-53
2022/11/26 02:05:40;;;;;;;3.40;1.23;;;;;;;3.52;80.15;95876.44;5114192;28;20428;-53
2022/11/26 02:08:09;;;;;;;10.00;1.00;;;;;;;3.88;80.75;95869.72;5114833;28;20424;-54
2022/11/26 02:10:39;;;;;;;0.40;0.30;;;;;;;4.24;79.93;95854.09;5114702;27;20436;-54
2022/11/26 02:13:07;;;;;;;0.60;0.53;;;;;;;4.68;78.72;95859.06;5115123;28;20428;-54
2022/11/26 02:15:46;;;;;;;2.10;0.97;;;;;;;5.05;92.99;95860.66;5114653;27;20466;-54
2022/11/26 02:18:15;;;;;;;0.30;0.20;;;;;;;5.23;79.63;95869.53;5114719;28;20424;-55
2022/11/26 02:20:53;;;;;;;0.90;0.90;;;;;;;4.84;77.23;95855.06;5114871;28;20431;-54
2022/11/26 02:23:58;;;;;;;0.30;0.30;;;;;;;4.50;79.79;95859.84;5114932;27;21219;-54
2022/11/26 02:27:00;;;;;;;0.40;0.40;;;;;;;4.42;77.25;95841.81;5114571;27;20432;-54
2022/11/26 02:29:56;;;;;;;0.60;0.40;;;;;;;4.76;76.02;95836.97;5114774;28;20427;-54
2022/11/26 02:32:30;;;;;;;0.50;0.40;;;;;;;3.78;77.35;95781.06;5113550;28;20519;-54
2022/11/26 02:35:01;;;;;;;0.40;0.40;;;;;;;4.55;78.31;95853.97;5114256;28;20936;-55
2022/11/26 02:37:33;;;;;;;0.87;0.87;;;;;;;4.78;75.42;95854.09;5114496;28;20424;-54
2022/11/26 02:40:02;;;;;;;0.80;0.30;;;;;;;4.66;76.19;95847.97;5114463;28;20531;-54
2022/11/26 02:42:32;;;;;;;0.30;0.30;;;;;;;4.55;74.39;95804.09;5114256;28;20431;-54
2022/11/26 02:45:06;;;;;;;19.43;1.17;;;;;;;4.67;73.36;95865.34;5114228;28;20427;-54
2022/11/26 02:47:37;;;;;;;0.83;0.83;;;;;;;4.78;72.99;95859.34;5113756;28;20424;-54
2022/11/26 02:50:10;;;;;;;0.40;0.30;;;;;;;4.98;71.98;95857.28;5114345;27;20428;-54
2022/11/26 02:52:40;;;;;;;0.30;0.20;;;;;;;5.12;72.07;95858.75;5114312;28;20434;-54
2022/11/26 02:55:13;;;;;;;0.83;0.83;;;;;;;4.81;71.50;95852.84;5113935;28;20419;-54
2022/11/26 02:57:47;;;;;;;0.77;0.77;;;;;;;3.91;73.41;95871.94;5113629;28;20436;-54
2022/11/26 03:00:18;;;;;;;0.87;0.87;;;;;;;3.78;74.02;95871.03;5113856;28;20502;-54
2022/11/26 03:02:51;;;;;;;0.70;0.50;;;;;;;4.67;75.27;95875.84;5113762;27;20857;-54
2022/11/26 03:05:19;;;;;;;0.53;0.30;;;;;;;4.14;73.41;95869.50;5113565;28;20420;-54
2022/11/26 03:07:51;;;;;;;0.40;0.37;;;;;;;4.56;74.72;95873.94;5113430;28;21008;-54
2022/11/26 03:10:24;;;;;;;1.60;0.90;;;;;;;4.98;75.30;95873.06;5113478;28;20967;-54
2022/11/26 03:12:53;;;;;;;1.03;0.87;;;;;;;5.14;73.09;95880.34;5113824;27;20628;-54
2022/11/26 03:15:23;;;;;;;0.50;0.50;;;;;;;4.82;72.78;95878.91;5113261;28;20938;-54
2022/11/26 03:17:51;;;;;;;0.30;0.30;;;;;;;3.95;74.98;95888.84;5113363;28;20507;-54
2022/11/26 03:20:19;;;;;;;0.30;0.30;;;;;;;4.18;73.90;95849.69;5113463;28;20435;-54
2022/11/26 03:22:47;;;;;;;0.53;0.30;;;;;;;4.39;73.02;95899.16;5113070;27;20424;-54
2022/11/26 03:25:16;;;;;;;0.50;0.50;;;;;;;4.10;73.38;95902.44;5113015;28;20424;-54
2022/11/26 03:27:44;;;;;;;0.70;0.70;;;;;;;3.46;76.45;95910.53;5112981;27;20555;-54
2022/11/26 03:30:13;;;;;;;0.60;0.60;;;;;;;2.80;77.13;95913.47;5113387;28;20432;-55
2022/11/26 03:32:43;;;;;;;1.90;1.27;;;;;;;2.55;80.37;95929.00;5113242;28;20420;-54
2022/11/26 03:35:11;;;;;;;0.40;0.30;;;;;;;2.52;80.89;95926.81;5113348;28;20799;-54
2022/11/26 03:37:39;;;;;;;1.70;1.60;;;;;;;3.19;79.34;95920.34;5112930;28;20479;-54
2022/11/26 03:40:09;;;;;;;0.40;0.40;;;;;;;3.75;77.14;95910.75;5112845;28;20428;-54
2022/11/26 03:42:37;;;;;;;0.30;0.20;;;;;;;4.12;74.58;95924.03;5112896;28;20539;-54
2022/11/26 03:45:06;;;;;;;1.43;1.23;;;;;;;4.08;73.46;95918.38;5113169;28;20937;-54
2022/11/26 03:47:35;;;;;;;0.47;0.47;;;;;;;3.88;74.47;95933.47;5112603;28;20791;-54
2022/11/26 03:50:05;;;;;;;0.67;0.67;;;;;;;3.08;76.52;95900.06;5112530;28;20463;-54
2022/11/26 03:52:34;;;;;;;0.40;0.30;;;;;;;3.61;76.02;95939.91;5112542;27;20447;-54
2022/11/26 03:55:02;;;;;;;0.70;0.70;;;;;;;3.57;75.65;95933.44;5112382;28;20435;-54
2022/11/26 03:57:31;;;;;;;1.10;1.10;;;;;;;3.45;75.94;95941.19;5112371;28;20476;-54
2022/11/26 03:59:59;;;;;;;1.90;1.40;;;;;;;3.20;77.18;95935.06;5111704;28;20456;-54
2022/11/26 04:02:28;;;;;;;0.90;0.90;;;;;;;3.18;77.74;95931.84;5112231;28;20523;-54
2022/11/26 04:04:56;;;;;;;0.80;0.80;;;;;;;3.41;76.79;95937.38;5112030;28;20416;-54
2022/11/26 04:07:26;;;;;;;1.07;0.87;;;;;;;3.27;77.44;95929.78;5112806;28;20428;-54
2022/11/26 04:09:54;;;;;;;0.53;0.53;;;;;;;2.94;78.84;95935.13;5112372;28;20524;-54
2022/11/26 04:12:23;;;;;;;0.70;0.70;;;;;;;3.26;77.99;95931.63;5112255;28;20803;-54
2022/11/26 04:14:51;;;;;;;1.33;1.27;;;;;;;3.20;78.45;95937.69;5112401;28;20432;-54
2022/11/26 04:17:19;;;;;;;0.70;0.53;;;;;;;3.27;78.64;95942.88;5112070;28;20475;-54
2022/11/26 04:19:47;;;;;;;0.40;0.30;;;;;;;3.06;78.21;95952.63;5111975;28;20436;-54
2022/11/26 04:22:16;;;;;;;0.50;0.47;;;;;;;3.16;78.69;95970.53;5111910;28;20494;-54
2022/11/26 04:24:46;;;;;;;0.90;0.90;;;;;;;2.84;79.62;95955.72;5112124;28;20436;-54
2022/11/26 04:27:14;;;;;;;0.77;0.77;;;;;;;2.79;80.38;95971.22;5111541;28;20916;-54
2022/11/26 04:29:42;;;;;;;1.13;1.10;;;;;;;2.77;80.56;95962.78;5112048;28;20495;-54
2022/11/26 04:32:12;;;;;;;0.40;0.30;;;;;;;2.94;80.71;95963.94;5111757;28;20510;-54
2022/11/26 04:34:40;;;;;;;2.50;1.03;;;;;;;3.30;78.82;95972.09;5111802;28;20431;-54
2022/11/26 04:37:08;;;;;;;0.40;0.33;;;;;;;3.56;77.31;95965.94;5111796;28;20471;-54
2022/11/26 04:39:37;;;;;;;1.20;0.70;;;;;;;3.29;78.07;95967.84;5111490;28;20439;-54
2022/11/26 04:42:06;;;;;;;0.90;0.50;;;;;;;2.76;80.06;95963.81;5111500;28;20424;-54
2022/11/26 04:44:34;;;;;;;0.60;0.60;;;;;;;2.53;84.28;95972.06;5112078;28;20807;-54
2022/11/26 04:47:03;;;;;;;1.57;0.73;;;;;;;2.55;85.60;95973.47;5112009;28;20800;-54
2022/11/26 04:49:31;;;;;;;0.63;0.63;;;;;;;2.86;84.15;95956.34;5111586;28;20507;-54
2022/11/26 04:52:00;;;;;;;0.40;0.40;;;;;;;3.08;82.82;95976.00;5111844;28;20454;-54
2022/11/26 04:54:28;;;;;;;18.07;1.13;;;;;;;3.13;81.79;95974.38;5111744;28;20416;-54
2022/11/26 04:56:56;;;;;;;1.33;0.60;;;;;;;2.88;82.45;95970.81;5111481;28;20468;-53
2022/11/26 04:59:26;;;;;;;0.50;0.30;;;;;;;3.13;82.25;95982.25;5111531;28;20428;-53
2022/11/26 05:01:55;;;;;;;19.53;0.60;;;;;;;3.22;80.91;95980.19;5111670;28;20420;-53
2022/11/26 05:04:23;;;;;;;0.70;0.70;;;;;;;3.32;79.71;95987.59;5111882;28;20458;-54
2022/11/26 05:06:51;;;;;;;0.80;0.80;;;;;;;3.27;80.20;95995.25;5111304;28;20522;-53
2022/11/26 05:09:19;;;;;;;0.67;0.50;;;;;;;3.16;80.82;95999.34;5111670;28;20430;-54
2022/11/26 05:11:48;;;;;;;1.53;1.53;;;;;;;2.55;82.52;95986.56;5115389;28;20438;-55
2022/11/26 05:14:16;;;;;;;2.90;1.80;;;;;;;2.67;83.91;96020.78;5115432;28;20427;-55
2022/11/26 05:16:45;;;;;;;0.70;0.70;;;;;;;2.77;82.82;96020.38;5115538;28;20810;-55
2022/11/26 05:19:14;;;;;;;1.70;1.60;;;;;;;2.58;82.62;96015.97;5115492;28;20443;-54
2022/11/26 05:21:42;;;;;;;0.60;0.50;;;;;;;2.58;82.34;96021.19;5115307;27;20886;-54
2022/11/26 05:24:11;;;;;;;1.43;1.33;;;;;;;2.24;80.68;96022.19;5115152;27;20927;-55
2022/11/26 05:26:39;;;;;;;0.63;0.63;;;;;;;1.97;80.96;96028.41;5115241;28;20529;-54
2022/11/26 05:29:07;;;;;;;1.37;1.23;;;;;;;1.72;81.47;96028.91;5114803;28;20824;-54
2022/11/26 05:31:35;;;;;;;1.90;1.80;;;;;;;1.54;80.46;95910.31;5114746;28;20519;-54
2022/11/26 05:34:05;;;;;;;0.40;0.30;;;;;;;2.44;79.99;96023.00;5115179;28;20440;-54
2022/11/26 05:36:34;;;;;;;1.40;1.40;;;;;;;2.13;80.86;96001.84;5114467;28;20484;-54
2022/11/26 05:39:02;;;;;;;2.67;1.23;;;;;;;2.17;81.30;96021.38;5114664;28;20448;-54
2022/11/26 05:41:30;;;;;;;0.53;0.50;;;;;;;2.39;81.98;96021.00;5114565;28;20433;-54
2022/11/26 05:43:58;;;;;;;5.13;0.83;;;;;;;2.32;82.08;96017.56;5114842;28;20459;-54
2022/11/26 05:46:27;;;;;;;1.47;1.47;;;;;;;2.18;82.32;96038.66;5114573;28;20432;-54
2022/11/26 05:48:55;;;;;;;3.20;2.57;;;;;;;2.23;82.27;96033.66;5114477;28;20430;-54
2022/11/26 05:51:25;;;;;;;7.10;1.33;;;;;;;2.47;81.02;96027.84;5113601;28;20434;-54
2022/11/26 05:53:53;;;;;;;0.53;0.53;;;;;;;2.74;79.71;96041.72;5114408;28;20427;-54
2022/11/26 05:56:21;;;;;;;1.30;1.23;;;;;;;2.56;81.13;96037.91;5114220;28;20428;-54
2022/11/26 05:58:49;;;;;;;0.53;0.50;;;;;;;2.53;81.13;96054.00;5114433;28;20460;-54
2022/11/26 06:01:18;;;;;;;1.30;1.30;;;;;;;2.49;81.01;96051.97;5114444;27;20428;-54
2022/11/26 06:03:46;;;;;;;2.80;2.67;;;;;;;2.47;81.62;96070.50;5114675;28;20459;-54
2022/11/26 06:06:14;;;;;;;1.20;1.20;;;;;;;2.47;82.34;96069.69;5114822;28;20781;-54
2022/11/26 06:08:44;;;;;;;2.70;0.93;;;;;;;2.76;81.61;96069.28;5114292;28;20442;-54
2022/11/26 06:11:12;;;;;;;2.87;2.67;;;;;;;2.63;81.06;96058.03;5114739;28;20420;-55
2022/11/26 06:13:41;;;;;;;6.73;1.60;;;;;;;3.29;80.33;96064.00;5114720;28;20510;-54
2022/11/26 06:16:09;;;;;;;0.73;0.73;;;;;;;3.67;80.68;96051.75;5114626;28;20436;-55
2022/11/26 06:18:38;;;;;;;1.43;1.43;;;;;;;4.62;79.94;96056.84;5114411;27;20582;-55
2022/11/26 06:21:07;;;;;;;1.30;1.20;;;;;;;4.87;75.79;96052.41;5113619;28;20519;-55
2022/11/26 06:23:36;;;;;;;1.30;1.30;;;;;;;5.04;73.18;96063.97;5113898;28;20516;-55
2022/11/26 06:26:09;;;;;;;2.67;1.57;;;;;;;5.47;72.97;96063.13;5114065;27;20519;-56
2022/11/26 06:28:38;;;;;;;2.90;2.70;;;;;;;6.10;71.21;96061.78;5114189;28;20477;-56
2022/11/26 06:31:09;;;;;;;1.83;1.73;;;;;;;6.60;68.15;96061.50;5114073;28;20430;-55
2022/11/26 06:33:37;;;;;;;9.43;3.50;;;;;;;6.72;66.57;96054.41;5113865;28;20489;-55
2022/11/26 06:36:06;;;;;;;15.83;4.90;;;;;;;6.76;65.96;96058.19;5113970;28;20940;-56
2022/11/26 06:38:34;;;;;;;5.97;1.40;;;;;;;7.32;65.88;96044.47;5113810;28;20555;-57
2022/11/26 06:41:05;;;;;;;5.50;5.10;;;;;;;7.42;63.77;96048.13;5113820;28;20451;-55
2022/11/26 06:43:35;;;;;;;3.60;3.50;;;;;;;8.01;64.39;96043.50;5113609;28;20427;-55
2022/11/26 06:46:05;;;;;;;7.07;5.73;;;;;;;7.80;62.09;96030.94;5113741;28;20428;-55
2022/11/26 06:48:34;;;;;;;3.73;3.27;;;;;;;8.33;61.82;96026.19;5113781;28;20440;-55
2022/11/26 06:51:04;;;;;;;3.23;2.27;;;;;;;8.73;60.92;96029.50;5113701;27;20794;-55
2022/11/26 06:53:33;;;;;;;4.50;3.93;;;;;;;8.66;59.80;95957.50;5113584;28;20500;-55
2022/11/26 06:56:01;;;;;;;6.60;6.30;;;;;;;9.38;59.77;96029.72;5113304;28;20432;-55
2022/11/26 06:58:29;;;;;;;8.63;5.50;;;;;;;9.56;58.46;96020.69;5113384;28;21038;-55
2022/11/26 07:00:59;;;;;;;2.80;2.43;;;;;;;8.91;58.34;95989.63;5113610;28;20420;-55
2022/11/26 07:03:28;;;;;;;16.43;4.23;;;;;;;9.74;57.16;96028.28;5113608;28;20438;-56
2022/11/26 07:06:00;;;;;;;2.37;2.17;;;;;;;10.16;55.02;96032.00;5113616;28;20489;-57
2022/11/26 07:08:29;;;;;;;3.10;2.90;;;;;;;9.17;56.74;96033.09;5113449;28;20416;-58
2022/11/26 07:11:01;;;;;;;5.17;3.00;;;;;;;9.05;59.04;96047.44;5113063;28;20497;-58
2022/11/26 07:13:30;;;;;;;4.73;4.53;;;;;;;8.91;57.87;96033.75;5113195;28;21061;-60
2022/11/26 07:16:03;;;;;;;6.80;3.63;;;;;;;9.18;57.42;96050.59;5113128;28;20960;-60
2022/11/26 07:18:32;;;;;;;2.33;2.13;;;;;;;8.87;57.47;96049.31;5113129;28;20544;-60
2022/11/26 07:21:05;;;;;;;2.07;1.80;;;;;;;9.32;56.38;95996.28;5113261;28;20436;-60
2022/11/26 07:23:33;;;;;;;2.43;2.33;;;;;;;9.17;55.83;95974.09;5113090;28;20493;-62
2022/11/26 07:26:02;;;;;;;4.27;4.07;;;;;;;9.34;56.35;96048.94;5112662;28;20450;-61
2022/11/26 07:28:31;;;;;;;1.43;1.13;;;;;;;9.68;56.23;96044.38;5112667;28;20491;-61
2022/11/26 07:31:02;;;;;;;1.40;1.20;;;;;;;9.83;54.56;96055.97;5112230;28;20514;-60
2022/11/26 07:33:31;;;;;;;0.77;0.77;;;;;;;10.09;55.46;96057.84;5111364;28;20442;-59
2022/11/26 07:36:00;;;;;;;1.63;1.50;;;;;;;9.50;55.96;96053.41;5112546;28;20437;-58
2022/11/26 07:38:29;;;;;;;0.50;0.50;;;;;;;10.60;53.19;96061.84;5112412;28;20483;-59
2022/11/26 07:41:04;;;;;;;0.40;0.40;;;;;;;11.04;52.86;96051.91;5112758;28;20437;-58
2022/11/26 07:43:34;;;;;;;0.50;0.50;;;;;;;11.16;51.73;96023.34;5112576;28;20449;-57
2022/11/26 07:46:06;;;;;;;0.40;0.40;;;;;;;10.63;52.24;96063.19;5113099;28;20444;-57
2022/11/26 07:48:35;;;;;;;0.50;0.50;;;;;;;11.62;50.97;96060.78;5113147;28;20792;-57
2022/11/26 07:51:04;;;;;;;0.67;0.50;;;;;;;13.38;50.14;96042.63;5113067;28;20435;-58
2022/11/26 07:53:34;;;;;;;0.47;0.43;;;;;;;14.57;47.19;96060.34;5113042;28;20545;-58
2022/11/26 07:56:05;;;;;;;1.03;1.03;;;;;;;15.09;46.78;96060.50;5113302;28;20538;-58
2022/11/26 07:58:33;;;;;;;0.40;0.40;;;;;;;14.11;43.89;96009.06;5112725;28;20462;-57
2022/11/26 08:01:08;;;;;;;0.50;0.50;;;;;;;12.36;47.47;96043.59;5112708;28;20433;-58
2022/11/26 08:03:38;;;;;;;1.17;0.50;;;;;;;13.13;46.33;96061.28;5112446;28;20421;-57
2022/11/26 08:06:08;;;;;;;1.47;1.37;;;;;;;13.39;45.99;96060.16;5112525;28;20431;-57
2022/11/26 08:08:37;;;;;;;0.60;0.60;;;;;;;13.86;45.68;96057.16;5112452;28;20544;-56
2022/11/26 08:11:12;;;;;;;1.37;1.10;;;;;;;14.18;44.38;96070.06;5111845;28;20429;-57
2022/11/26 08:13:41;;;;;;;3.23;0.77;;;;;;;13.88;44.22;96063.00;5112230;28;20439;-55
2022/11/26 08:16:11;;;;;;;0.60;0.50;;;;;;;13.84;44.42;96052.06;5112262;28;20436;-56
2022/11/26 08:18:40;;;;;;;0.73;0.70;;;;;;;14.17;45.57;96068.47;5111936;28;20487;-56
2022/11/26 08:21:08;;;;;;;4.00;1.53;;;;;;;12.72;44.99;95909.56;5112366;28;20423;-56
2022/11/26 08:23:37;;;;;;;1.80;1.23;;;;;;;14.41;43.69;96066.81;5112129;28;20438;-56
2022/11/26 08:26:07;;;;;;;1.50;1.00;;;;;;;15.27;42.20;96070.50;5111998;28;20483;-55
2022/11/26 08:28:55;;;;;;;0.90;0.90;;;;;;;15.54;41.73;96064.66;5111722;28;20467;-55
2022/11/26 08:31:26;;;;;;;0.80;0.80;;;;;;;15.76;42.70;96067.66;5112257;28;20437;-56
2022/11/26 08:33:57;;;;;;;0.83;0.83;;;;;;;15.80;42.30;96066.00;5111853;28;20431;-55
2022/11/26 08:36:26;;;;;;;0.73;0.73;;;;;;;14.31;43.92;96042.84;5112057;28;20447;-55
2022/11/26 08:38:54;;;;;;;3.50;3.10;;;;;;;14.96;42.97;96049.66;5111902;28;20463;-55
2022/11/26 08:41:23;;;;;;;0.70;0.60;;;;;;;13.62;43.33;96059.59;5112067;28;20451;-55
2022/11/26 08:43:52;;;;;;;1.07;1.07;;;;;;;15.19;42.59;96057.75;5111732;28;20470;-55
2022/11/26 08:46:38;;;;;;;1.17;1.13;;;;;;;16.11;40.73;96038.94;5115765;28;20438;-55
2022/11/26 08:49:09;;;;;;;0.50;0.40;;;;;;;15.86;41.32;95957.94;5116282;28;20431;-54
2022/11/26 08:51:38;;;;;;;2.50;1.47;;;;;;;16.33;41.43;96042.66;5115491;28;20428;-55
2022/11/26 08:54:06;;;;;;;14.37;0.73;;;;;;;15.50;41.64;96052.16;5115987;28;20424;-54
2022/11/26 08:56:35;;;;;;;2.03;1.90;;;;;;;16.42;40.11;95990.09;5116200;28;20427;-54
2022/11/26 08:59:03;;;;;;;0.70;0.70;;;;;;;16.64;40.05;96029.69;5115809;28;20555;-54
2022/11/26 09:01:33;;;;;;;3.10;1.30;;;;;;;16.04;41.83;96031.25;5115441;28;20435;-55
2022/11/26 09:04:04;;;;;;;1.40;1.33;;;;;;;15.37;41.77;95981.47;5115908;28;20423;-55
2022/11/26 09:06:35;;;;;;;1.43;1.43;;;;;;;16.46;39.46;96033.94;5115580;28;20474;-54
2022/11/26 09:09:13;;;;;;;1.00;0.73;;;;;;;16.83;39.03;96016.28;5115204;28;20415;-54
2022/11/26 09:11:46;;;;;;;0.57;0.50;;;;;;;14.38;40.93;95856.66;5115553;28;20928;-53
2022/11/26 09:14:17;;;;;;;0.50;0.50;;;;;;;16.37;39.89;96016.91;5115666;28;20863;-49
2022/11/26 09:16:45;;;;;;;2.20;0.53;;;;;;;17.75;41.11;96012.59;5115436;28;20420;-49
2022/11/26 09:19:15;;;;;;;1.00;0.90;;;;;;;16.94;38.87;96013.16;5115169;28;20521;-49
2022/11/26 09:21:44;;;;;;;1.17;1.17;;;;;;;16.49;38.46;95998.53;5115518;28;20486;-50
2022/11/26 09:24:12;;;;;;;0.50;0.40;;;;;;;17.06;38.08;96007.34;5115205;28;20936;-50
2022/11/26 09:26:41;;;;;;;0.73;0.73;;;;;;;17.53;37.78;95999.03;5115294;28;20519;-51
2022/11/26 09:29:12;;;;;;;0.93;0.93;;;;;;;17.09;37.15;95910.34;5115355;28;20467;-49
2022/11/26 09:31:41;;;;;;;0.70;0.70;;;;;;;17.78;38.26;95992.44;5115606;28;20428;-50
2022/11/26 09:34:31;;;;;;;3.53;3.33;;;;;;;17.69;36.75;95999.56;5115086;28;20435;-49
2022/11/26 09:36:59;;;;;;;2.10;2.00;;;;;;;17.50;37.19;95990.78;5114347;27;20917;-50
2022/11/26 09:39:27;;;;;;;3.20;1.77;;;;;;;17.09;37.57;95956.69;5115241;28;20471;-50
2022/11/26 09:42:04;;;;;;;1.03;1.03;;;;;;;17.79;37.39;95975.22;5115047;28;20511;-50
2022/11/26 09:44:53;;;;;;;1.57;1.47;;;;;;;17.34;37.07;95978.75;5115361;28;20437;-50
2022/11/26 09:47:23;;;;;;;1.00;1.00;;;;;;;19.30;36.47;95971.78;5115179;27;20436;-50
2022/11/26 09:49:59;;;;;;;0.57;0.57;;;;;;;18.56;35.56;95959.13;5115404;28;20428;-49
2022/11/26 09:52:33;;;;;;;0.60;0.60;;;;;;;18.69;34.80;95956.41;5115008;28;20438;-49
2022/11/26 09:55:12;;;;;;;0.97;0.70;;;;;;;19.26;34.60;95960.09;5114877;28;20435;-49
2022/11/26 09:57:43;;;;;;;0.83;0.70;;;;;;;18.95;33.81;95952.00;5114217;28;20438;-50
2022/11/26 10:00:22;;;;;;;1.37;0.40;;;;;;;19.46;32.73;95945.34;5114622;28;20554;-50
2022/11/26 10:02:55;;;;;;;12.60;0.70;;;;;;;19.55;33.87;95914.72;5114744;28;20423;-50
2022/11/26 10:05:40;;;;;;;0.60;0.50;;;;;;;19.66;33.08;95942.09;5114748;28;20432;-50
2022/11/26 10:08:22;;;;;;;1.80;1.70;;;;;;;21.19;32.04;95935.28;5114751;28;20460;-50
2022/11/26 10:10:56;;;;;;;0.60;0.60;;;;;;;20.57;32.31;95934.84;5114740;28;20499;-50
2022/11/26 10:13:41;;;;;;;0.50;0.50;;;;;;;22.69;31.74;95936.25;5114341;28;20431;-50
2022/11/26 10:16:20;;;;;;;0.60;0.53;;;;;;;22.28;30.46;95924.66;5114209;28;20438;-50
2022/11/26 10:19:00;;;;;;;1.07;0.97;;;;;;;21.20;31.08;95919.91;5114403;28;20427;-48
2022/11/26 10:21:36;;;;;;;0.40;0.30;;;;;;;20.91;31.39;95917.88;5114669;28;20448;-49
2022/11/26 10:24:29;;;;;;;1.70;0.53;;;;;;;20.24;31.30;95915.69;5114586;28;20502;-49
2022/11/26 10:27:01;;;;;;;0.80;0.80;;;;;;;19.99;31.66;95908.34;5114212;28;20432;-50
2022/11/26 10:29:37;;;;;;;0.90;0.73;;;;;;;19.33;32.11;95916.63;5114682;28;20420;-50
2022/11/26 10:32:13;;;;;;;0.50;0.40;;;;;;;19.76;31.74;95890.72;5114034;28;20431;-49
2022/11/26 10:34:49;;;;;;;0.60;0.47;;;;;;;20.89;31.70;95893.16;5114383;28;20514;-49
2022/11/26 10:37:20;;;;;;;0.50;0.40;;;;;;;19.97;31.80;95899.78;5114468;28;20735;-49
2022/11/26 10:39:49;;;;;;;1.07;1.07;;;;;;;21.23;32.22;95900.38;5114267;28;20848;-49
2022/11/26 10:42:25;;;;;;;0.50;0.50;;;;;;;22.38;30.15;95900.75;5113806;28;20467;-49
2022/11/26 10:44:54;;;;;;;0.50;0.50;;;;;;;20.22;31.10;95901.72;5113403;27;20420;-49
2022/11/26 10:47:27;;;;;;;1.17;0.67;;;;;;;21.38;31.54;95903.34;5114286;28;20427;-49
2022/11/26 10:50:12;;;;;;;0.63;0.57;;;;;;;20.89;30.08;95885.06;5114192;28;20860;-49
2022/11/26 10:53:06;;;;;;;0.90;0.90;;;;;;;21.60;30.96;95893.44;5113610;28;20431;-50
2022/11/26 10:55:39;;;;;;;1.07;0.70;;;;;;;20.74;30.57;95890.97;5113909;28;20428;-49
2022/11/26 10:58:16;;;;;;;0.40;0.40;;;;;;;22.31;30.37;95880.78;5113897;27;20427;-49
2022/11/26 11:00:54;;;;;;;1.37;0.40;;;;;;;21.91;29.16;95885.81;5113260;28;20886;-49
2022/11/26 11:03:24;;;;;;;0.53;0.43;;;;;;;21.66;28.48;95889.41;5113408;28;20999;-49
2022/11/26 11:06:26;;;;;;;0.40;0.40;;;;;;;21.63;28.64;95865.81;5113203;28;20440;-50
2022/11/26 11:08:56;;;;;;;0.40;0.30;;;;;;;21.65;28.87;95887.84;5112952;27;20439;-49
2022/11/26 11:11:27;;;;;;;0.60;0.40;;;;;;;21.98;28.56;95880.72;5113200;28;20938;-49
2022/11/26 11:13:55;;;;;;;0.53;0.53;;;;;;;20.70;28.72;95836.13;5113383;28;20436;-49
2022/11/26 11:16:28;;;;;;;0.40;0.30;;;;;;;21.58;30.23;95841.72;5112980;28;20870;-50
2022/11/26 11:19:00;;;;;;;0.40;0.40;;;;;;;21.10;29.37;95807.06;5113025;28;20469;-49
2022/11/26 11:21:30;;;;;;;0.50;0.30;;;;;;;21.78;28.21;95870.63;5113042;28;21168;-50
2022/11/26 11:24:15;;;;;;;0.67;0.63;;;;;;;22.42;28.73;95863.84;5113024;28;20468;-49
2022/11/26 11:26:46;;;;;;;0.67;0.67;;;;;;;22.87;28.25;95857.75;5112939;28;20507;-49
2022/11/26 11:29:26;;;;;;;0.40;0.30;;;;;;;22.43;28.18;95870.84;5112593;28;20884;-50
2022/11/26 11:31:55;;;;;;;0.73;0.50;;;;;;;21.98;27.44;95724.16;5112070;28;20420;-50
2022/11/26 11:34:29;;;;;;;0.70;0.70;;;;;;;22.29;28.08;95864.91;5112422;28;20928;-50
2022/11/26 11:37:03;;;;;;;0.40;0.30;;;;;;;21.67;27.45;95864.03;5113022;28;20802;-50
2022/11/26 11:39:35;;;;;;;1.63;0.33;;;;;;;22.45;26.74;95855.09;5112640;27;20436;-50
2022/11/26 11:42:06;;;;;;;0.40;0.30;;;;;;;21.38;27.54;95827.84;5112800;28;20420;-50
2022/11/26 11:44:39;;;;;;;0.40;0.30;;;;;;;20.99;28.49;95868.56;5112597;28;21004;-49
2022/11/26 11:47:40;;;;;;;0.40;0.40;;;;;;;21.42;29.88;95858.44;5112223;28;20416;-50
2022/11/26 11:50:21;;;;;;;1.83;0.50;;;;;;;22.81;27.57;95861.78;5097178;28;20439;-49
2022/11/26 11:53:19;;;;;;;0.40;0.30;;;;;;;21.24;28.63;95856.94;5112303;28;20495;-49
2022/11/26 11:56:10;;;;;;;0.40;0.40;;;;;;;21.04;29.57;95838.75;5112695;28;20462;-49
2022/11/26 11:58:54;;;;;;;3.80;0.40;;;;;;;21.39;28.70;95853.69;5112358;28;20923;-50
2022/11/26 12:01:35;;;;;;;0.53;0.40;;;;;;;20.45;29.89;95845.84;5112762;28;20488;-49